Capitol Logistics 229




KBWI
Baltimore/Washington International Airport
Baltimore, Maryland
KBNA
Nashville International Airport
Nashville, Tennessee

Activity Log

Date Flight Route Aircraft Duration
10/19/2021 CPX229 TERPZ7 OTTTO Q80 DEWAK GROAT PASLY4 B752 2h 00m
09/06/2021 CPX229 TERPZ7 OTTTO Q80 DEWAK GROAT PASLY4 B738 1h 49m
08/06/2021 CPX229 TERPZ7 OTTTO Q80 DEWAK GROAT PASLY4 B738 1h 42m
05/30/2021 CPX229 TERPZ7 OTTTO Q80 DEWAK GROAT PASLY4 B738 1h 47m

Route Details

Aircraft Information
Group: Narrowbodies
Types: B738,B752
Route Data
Demand: M
Distance: 510nm
Duration: 1h 40m
Recm'd Route: TERPZ7 OTTTO Q80 DEWAK GROAT PASLY4
Origin Wx: KBWI 241954Z 09009KT 10SM SCT031 BKN042 OVC070 18/12 A3024 RMK AO2 SLP241 T01830117
Dest. Wx: KBNA 241953Z 10008KT 10SM SCT055 SCT110 BKN250 27/17 A3002 RMK AO2 SLP160 T02720167
Notes:

Financial History
Total Freight: 120,770lbs
Average Load: 30,193lbs/flt
Fuel Used: 32,454lbs
Avg. Fuel Used: 8,114lbs/flt
Fuel Expense: $9,129
Avg. Fuel Expense: $2,282
Avg. Fuel Cost: $0.28/lbs
Total Gross Income: $257,294
Pilot Pay: $576
Total Expenses: $35,089
Total Revenue: $212,023
Average Revenue: $64,323.53